Forester — DIUT — position and weather

sailwx.info

Track history (hours):
 
Tides and Currents Weather Stations Pressure Air Temp Water Temp Dewpoint Dewpoint Depression Visibility Wind Speed Wind Dir Waves Ship Positions

Forester

Last reported at 2015-Mar-23 21:06 UTC. Time now 2015-Mar-27 06:56 UTC.
Position N 39°12' W 009°49'.

Length 100 m; draft 7.2 m.

Type: Ship. MMSI: 211233870.

Date/timePositionNaut miles runAvg speedWind from/ knotsBaromVisibWave heightAir tempDewpointWater temp
2015-Mar-23 21:06N 39°12' W 009°49'3 5.4
2015-Mar-23 20:31N 39°08' W 009°50'6 5.6
2015-Mar-23 19:30N 39°03' W 009°50'6 6.3
2015-Mar-23 18:33N 38°57' W 009°50'6 6.6
2015-Mar-23 17:33N 38°50' W 009°50'7 7.0
2015-Mar-23 16:32N 38°43' W 009°50'7 7.3
2015-Mar-23 15:33N 38°36' W 009°48'7 7.1
2015-Mar-23 14:33N 38°29' W 009°45'7 7.4
2015-Mar-23 13:33N 38°22' W 009°43'8 7.8
2015-Mar-23 12:33N 38°14' W 009°41'9 8.6
2015-Mar-23 11:33N 38°06' W 009°39'9 9.0
2015-Mar-23 10:33N 37°57' W 009°36'9 9.5
2015-Mar-23 09:33N 37°48' W 009°33'10 9.7
2015-Mar-23 08:33N 37°39' W 009°30'10 9.7
2015-Mar-23 07:30N 37°29' W 009°28'1210.1
2015-Mar-23 06:21N 37°17' W 009°25'1010.3
2015-Mar-23 05:25N 37°08' W 009°22'30 9.6
2015-Mar-23 02:20N 36°44' W 009°00'911.2
2015-Mar-23 01:33N 36°42' W 008°50'1111.0
2015-Mar-23 00:33N 36°38' W 008°37'1110.8
2015-Mar-22 23:33N 36°35' W 008°24'2110.5
2015-Mar-22 21:33N 36°30' W 007°59'11810.7
2015-Mar-22 10:33N 35°58' W 005°38'8 8.0
2015-Mar-22 09:33N 36°00' W 005°28'7 7.2
2015-Mar-22 08:33N 36°02' W 005°20'9 8.8
2015-Mar-22 07:32N 36°05' W 005°09'202 4.9
2015-Mar-20 14:32N 37°08' W 001°10'1110.9
2015-Mar-20 13:31N 37°07' W 000°56'1110.9
2015-Mar-20 12:33N 37°06' W 000°43'6611.0
2015-Mar-20 06:32N 37°01' E 000°40'1010.2
2015-Mar-20 05:30N 36°60' E 000°53'4210.5
2015-Mar-20 01:33N 36°57' E 001°45'3210.4
2015-Mar-19 22:30N 36°55' E 002°24'1010.7
2015-Mar-19 21:33N 36°54' E 002°37'1010.2
2015-Mar-19 20:33N 36°53' E 002°50'1010.1
2015-Mar-19 19:33N 36°51' E 003°02'5 3.3
2015-Mar-19 18:05N 36°47' E 003°04'0 0.0
2015-Mar-18 21:04N 36°47' E 003°04'0 0.0
2015-Mar-18 20:28N 36°47' E 003°04'0 0.0
2015-Mar-18 13:22N 36°47' E 003°04'0 0.0
2015-Mar-18 08:07N 36°47' E 003°04'0 0.0
2015-Mar-18 05:28N 36°47' E 003°04'0 0.0
2015-Mar-18 04:28N 36°47' E 003°04'  
Track history (hours):
 
Tides and Currents Weather Stations Pressure Air Temp Water Temp Dewpoint Dewpoint Depression Visibility Wind Speed Wind Dir Waves Ship Positions

Forester

Last reported at 2015-Mar-23 21:06 UTC. Time now 2015-Mar-27 06:56 UTC.
Position N 39°12' W 009°49'.

Length 100 m; draft 7.2 m.

Type: Ship. MMSI: 211233870.

Date/timePositionNaut miles runAvg speedWind from/ knotsBaromVisibWave heightAir tempDewpointWater temp
2015-Mar-23 21:06N 39°12' W 009°49'3 5.4
2015-Mar-23 20:31N 39°08' W 009°50'6 5.6
2015-Mar-23 19:30N 39°03' W 009°50'6 6.3
2015-Mar-23 18:33N 38°57' W 009°50'6 6.6
2015-Mar-23 17:33N 38°50' W 009°50'7 7.0
2015-Mar-23 16:32N 38°43' W 009°50'7 7.3
2015-Mar-23 15:33N 38°36' W 009°48'7 7.1
2015-Mar-23 14:33N 38°29' W 009°45'7 7.4
2015-Mar-23 13:33N 38°22' W 009°43'8 7.8
2015-Mar-23 12:33N 38°14' W 009°41'9 8.6
2015-Mar-23 11:33N 38°06' W 009°39'9 9.0
2015-Mar-23 10:33N 37°57' W 009°36'9 9.5
2015-Mar-23 09:33N 37°48' W 009°33'10 9.7
2015-Mar-23 08:33N 37°39' W 009°30'10 9.7
2015-Mar-23 07:30N 37°29' W 009°28'1210.1
2015-Mar-23 06:21N 37°17' W 009°25'1010.3
2015-Mar-23 05:25N 37°08' W 009°22'30 9.6
2015-Mar-23 02:20N 36°44' W 009°00'911.2
2015-Mar-23 01:33N 36°42' W 008°50'1111.0
2015-Mar-23 00:33N 36°38' W 008°37'1110.8
2015-Mar-22 23:33N 36°35' W 008°24'2110.5
2015-Mar-22 21:33N 36°30' W 007°59'11810.7
2015-Mar-22 10:33N 35°58' W 005°38'8 8.0
2015-Mar-22 09:33N 36°00' W 005°28'7 7.2
2015-Mar-22 08:33N 36°02' W 005°20'9 8.8
2015-Mar-22 07:32N 36°05' W 005°09'202 4.9
2015-Mar-20 14:32N 37°08' W 001°10'1110.9
2015-Mar-20 13:31N 37°07' W 000°56'1110.9
2015-Mar-20 12:33N 37°06' W 000°43'6611.0
2015-Mar-20 06:32N 37°01' E 000°40'1010.2
2015-Mar-20 05:30N 36°60' E 000°53'4210.5
2015-Mar-20 01:33N 36°57' E 001°45'3210.4
2015-Mar-19 22:30N 36°55' E 002°24'1010.7
2015-Mar-19 21:33N 36°54' E 002°37'1010.2
2015-Mar-19 20:33N 36°53' E 002°50'1010.1
2015-Mar-19 19:33N 36°51' E 003°02'5 3.3
2015-Mar-19 18:05N 36°47' E 003°04'0 0.0
2015-Mar-18 21:04N 36°47' E 003°04'0 0.0
2015-Mar-18 20:28N 36°47' E 003°04'0 0.0
2015-Mar-18 13:22N 36°47' E 003°04'0 0.0
2015-Mar-18 08:07N 36°47' E 003°04'0 0.0
2015-Mar-18 05:28N 36°47' E 003°04'0 0.0
2015-Mar-18 04:28N 36°47' E 003°04'  

Dump ship's entire track history